Time;durP1;ratioP1;P1;durP2;ratioP2;P2;SDS_P1;SDS_P2;PMS_P1;PMS_P2;Temp;Humidity;BMP_temperature;BMP_pressure;BME280_temperature;BME280_humidity;BME280_pressure;Samples;Min_cycle;Max_cycle;Signal;HPM_P1;HPM_P2
2021/07/24 00:00:05;;;;;;;10.23;8.40;;;;;;;18.37;67.76;100477.84;693835;28;2344;-82
2021/07/24 00:00:28;;;;;;;10.70;8.27;;;;;;;18.36;67.68;100475.25;692634;28;1796;-82
2021/07/24 00:00:48;;;;;;;10.23;8.20;;;;;;;18.39;67.30;100480.41;692712;28;1511;-81
2021/07/24 00:01:10;;;;;;;9.63;8.13;;;;;;;18.41;67.16;100475.06;696106;28;1413;-82
2021/07/24 00:01:30;;;;;;;10.20;8.32;;;;;;;18.43;66.66;100481.13;695594;28;1556;-81
2021/07/24 00:01:51;;;;;;;10.45;8.63;;;;;;;18.44;67.15;100480.22;693369;28;4563;-82
2021/07/24 00:02:11;;;;;;;9.95;8.25;;;;;;;18.50;67.23;100482.63;692365;28;4349;-83
2021/07/24 00:02:32;;;;;;;11.53;8.60;;;;;;;18.53;67.98;100472.78;690075;28;4024;-82
2021/07/24 00:02:53;;;;;;;9.95;8.63;;;;;;;18.50;67.73;100474.69;688664;28;1584;-82
2021/07/24 00:03:13;;;;;;;9.93;8.93;;;;;;;18.48;67.07;100482.69;689227;28;1669;-82
2021/07/24 00:03:34;;;;;;;9.73;8.60;;;;;;;18.46;67.27;100470.47;687065;28;1358;-82
2021/07/24 00:03:54;;;;;;;10.70;8.50;;;;;;;18.47;66.94;100474.81;688792;28;1251;-82
2021/07/24 00:04:14;;;;;;;11.23;8.50;;;;;;;18.47;66.81;100473.03;690179;28;1165;-82
2021/07/24 00:04:35;;;;;;;10.07;8.33;;;;;;;18.48;67.97;100479.19;690125;28;1236;-82
2021/07/24 00:04:55;;;;;;;9.55;8.50;;;;;;;18.42;68.00;100480.28;688516;28;4543;-82
2021/07/24 00:05:16;;;;;;;9.70;8.30;;;;;;;18.45;67.17;100477.50;687927;28;4346;-82
2021/07/24 00:05:36;;;;;;;9.83;8.40;;;;;;;18.45;67.15;100477.50;690577;28;4183;-83
2021/07/24 00:05:57;;;;;;;9.80;8.50;;;;;;;18.46;66.70;100473.94;689784;28;3346;-82
2021/07/24 00:06:17;;;;;;;9.40;8.50;;;;;;;18.47;67.19;100480.09;690506;28;2010;-82
2021/07/24 00:06:37;;;;;;;9.20;8.20;;;;;;;18.48;66.67;100476.53;692213;28;1411;-82
2021/07/24 00:07:01;;;;;;;10.33;8.30;;;;;;;18.47;66.95;100480.09;692222;28;1433;-82
2021/07/24 00:07:21;;;;;;;9.65;8.63;;;;;;;18.45;67.15;100481.97;694140;28;1699;-82
2021/07/24 00:07:41;;;;;;;9.90;8.70;;;;;;;18.44;67.33;100475.81;694621;28;1579;-82
2021/07/24 00:08:02;;;;;;;9.95;8.65;;;;;;;18.42;67.09;100477.66;694778;28;4377;-82
2021/07/24 00:08:22;;;;;;;9.70;7.87;;;;;;;18.43;66.83;100479.38;690369;28;4413;-82
2021/07/24 00:08:42;;;;;;;9.40;8.13;;;;;;;18.45;67.91;100479.31;687488;28;2899;-82
2021/07/24 00:09:06;;;;;;;9.67;8.77;;;;;;;18.43;67.97;100475.84;686909;28;1802;-83
2021/07/24 00:09:28;;;;;;;9.07;8.18;;;;;;;18.37;67.77;100469.91;689024;28;3515;-82
2021/07/24 00:09:49;;;;;;;9.73;8.73;;;;;;;18.36;67.70;100464.69;689612;28;1338;-82
2021/07/24 00:10:09;;;;;;;9.73;8.60;;;;;;;18.37;68.25;100475.19;690272;28;1782;-82
2021/07/24 00:10:29;;;;;;;9.75;8.40;;;;;;;18.35;67.80;100466.44;689258;28;1369;-82
2021/07/24 00:10:50;;;;;;;9.17;8.27;;;;;;;18.35;67.10;100469.09;690780;28;4369;-82
2021/07/24 00:11:10;;;;;;;9.13;8.17;;;;;;;18.34;68.44;100470.00;691145;28;4537;-82
2021/07/24 00:11:34;;;;;;;9.30;8.30;;;;;;;18.36;67.67;100468.16;691110;28;1714;-82
2021/07/24 00:11:55;;;;;;;9.25;8.32;;;;;;;18.36;67.99;100470.81;691892;28;2659;-82
2021/07/24 00:12:16;;;;;;;10.52;8.88;;;;;;;18.36;67.86;100472.63;694817;28;4000;-82
2021/07/24 00:12:36;;;;;;;9.83;8.70;;;;;;;18.37;68.31;100464.59;693989;28;3902;-82
2021/07/24 00:12:56;;;;;;;9.87;8.30;;;;;;;18.37;67.73;100469.91;690406;28;1410;-82
2021/07/24 00:13:17;;;;;;;9.77;8.10;;;;;;;18.38;68.34;100470.75;687572;28;1704;-82
2021/07/24 00:13:39;;;;;;;10.50;8.65;;;;;;;18.37;68.25;100464.59;690503;28;1821;-82
2021/07/24 00:13:59;;;;;;;10.00;8.55;;;;;;;18.36;68.27;100460.22;689963;28;4392;-82
2021/07/24 00:14:20;;;;;;;9.93;8.47;;;;;;;18.37;67.42;100454.03;690432;28;4308;-83
2021/07/24 00:14:40;;;;;;;9.30;8.40;;;;;;;18.37;68.48;100467.25;694466;28;1892;-82
2021/07/24 00:15:00;;;;;;;9.90;8.90;;;;;;;18.37;68.31;100459.31;695204;28;1705;-82
2021/07/24 00:15:21;;;;;;;10.00;9.00;;;;;;;18.36;68.39;100457.59;694249;28;1751;-82
2021/07/24 00:15:41;;;;;;;9.63;8.63;;;;;;;18.29;68.42;100460.53;694557;28;3863;-82
2021/07/24 00:16:02;;;;;;;10.27;8.87;;;;;;;18.24;68.33;100447.50;692787;28;2755;-82
2021/07/24 00:16:23;;;;;;;9.90;8.77;;;;;;;18.26;68.14;100450.94;690612;28;1435;-82
2021/07/24 00:16:43;;;;;;;9.23;8.33;;;;;;;18.28;68.72;100451.75;692649;28;1622;-82
2021/07/24 00:17:04;;;;;;;9.70;8.70;;;;;;;18.28;68.28;100464.13;689434;28;4507;-82
2021/07/24 00:17:24;;;;;;;10.07;8.70;;;;;;;18.29;67.81;100461.41;689587;28;2757;-82
2021/07/24 00:17:47;;;;;;;10.73;8.85;;;;;;;18.33;68.13;100454.19;693835;28;1523;-82
2021/07/24 00:18:08;;;;;;;10.75;9.00;;;;;;;18.35;67.29;100457.66;692331;28;2706;-82
2021/07/24 00:18:28;;;;;;;9.57;8.37;;;;;;;18.34;68.22;100454.13;689221;28;3865;-82
2021/07/24 00:18:48;;;;;;;11.00;8.90;;;;;;;18.35;67.63;100447.06;689395;28;3502;-82
2021/07/24 00:19:09;;;;;;;9.87;8.63;;;;;;;18.36;67.44;100444.34;691720;28;2057;-82
2021/07/24 00:19:29;;;;;;;10.60;8.60;;;;;;;18.37;67.37;100450.50;692321;28;1658;-82
2021/07/24 00:19:50;;;;;;;10.00;8.93;;;;;;;18.38;67.18;100445.13;690093;28;5257;-82
2021/07/24 00:20:11;;;;;;;11.70;8.87;;;;;;;18.41;67.18;100448.59;690084;28;4330;-82
2021/07/24 00:20:31;;;;;;;11.93;9.32;;;;;;;18.42;66.93;100447.69;690108;28;1495;-82
2021/07/24 00:20:52;;;;;;;10.48;8.98;;;;;;;18.42;67.33;100450.34;687432;28;1478;-83
2021/07/24 00:21:12;;;;;;;10.40;8.60;;;;;;;18.42;67.68;100452.97;686012;28;2347;-82
2021/07/24 00:21:32;;;;;;;10.82;8.90;;;;;;;18.36;67.55;100444.34;683404;28;1783;-82
2021/07/24 00:21:53;;;;;;;10.63;9.00;;;;;;;18.38;67.98;100442.50;688837;28;1562;-82
2021/07/24 00:22:13;;;;;;;10.95;9.20;;;;;;;18.38;67.15;100445.13;693212;28;1446;-82
2021/07/24 00:22:34;;;;;;;10.23;8.87;;;;;;;18.37;68.17;100450.50;689254;28;4472;-82
2021/07/24 00:22:54;;;;;;;9.83;8.73;;;;;;;18.35;67.82;100444.41;688224;28;4342;-82
2021/07/24 00:23:14;;;;;;;11.33;8.53;;;;;;;18.34;68.33;100448.84;692111;28;4395;-82
2021/07/24 00:23:35;;;;;;;10.80;8.57;;;;;;;18.34;67.50;100443.53;691841;28;1532;-82
2021/07/24 00:23:55;;;;;;;9.40;8.48;;;;;;;18.35;68.49;100434.69;692396;28;1867;-82
2021/07/24 00:24:15;;;;;;;10.90;8.70;;;;;;;18.29;68.68;100434.94;689548;28;1711;-82
2021/07/24 00:24:36;;;;;;;9.90;8.57;;;;;;;18.28;68.19;100433.22;692596;28;1439;-82
2021/07/24 00:24:56;;;;;;;9.57;8.57;;;;;;;18.29;68.07;100432.31;691260;28;2482;-82
2021/07/24 00:25:17;;;;;;;11.10;8.67;;;;;;;18.27;68.36;100434.13;693968;28;3612;-82
2021/07/24 00:25:40;;;;;;;11.68;8.82;;;;;;;18.24;68.31;100428.97;694969;28;3760;-82
2021/07/24 00:26:00;;;;;;;10.60;8.80;;;;;;;18.23;68.06;100431.69;692932;28;4392;-82
2021/07/24 00:26:20;;;;;;;11.27;9.00;;;;;;;18.24;67.59;100433.41;692562;28;4496;-82
2021/07/24 00:26:42;;;;;;;11.70;9.15;;;;;;;18.28;68.03;100429.72;692658;28;2357;-82
2021/07/24 00:27:06;;;;;;;10.80;9.15;;;;;;;18.21;67.85;100426.47;695238;28;1529;-82
2021/07/24 00:27:26;;;;;;;10.27;9.05;;;;;;;18.22;67.90;100430.84;695772;28;2185;-82
2021/07/24 00:27:47;;;;;;;11.10;9.00;;;;;;;18.22;67.31;100422.91;689739;28;3566;-82
2021/07/24 00:28:08;;;;;;;10.77;9.13;;;;;;;18.24;68.72;100422.84;686372;28;2528;-82
2021/07/24 00:28:28;;;;;;;10.25;9.15;;;;;;;18.20;68.67;100427.38;688764;28;3458;-82
2021/07/24 00:28:49;;;;;;;10.75;9.10;;;;;;;18.21;68.58;100429.97;689212;28;4352;-82
2021/07/24 00:29:10;;;;;;;10.30;9.07;;;;;;;18.23;68.76;100423.75;689027;28;4403;-82
2021/07/24 00:29:30;;;;;;;10.10;9.00;;;;;;;18.21;68.71;100427.31;692145;28;1391;-82
2021/07/24 00:29:52;;;;;;;10.27;9.23;;;;;;;18.21;68.42;100422.03;692064;28;1623;-81
2021/07/24 00:30:13;;;;;;;11.20;9.00;;;;;;;18.18;68.46;100423.94;688735;28;1617;-82
2021/07/24 00:30:41;;;;;;;9.77;8.77;;;;;;;18.21;68.10;100424.66;689584;28;1544;-82
2021/07/24 00:31:07;;;;;;;10.05;9.05;;;;;;;18.22;68.82;100428.19;688955;28;1408;-82
2021/07/24 00:31:35;;;;;;;10.93;8.90;;;;;;;18.22;68.16;100422.91;689510;28;3647;-82
2021/07/24 00:31:56;;;;;;;10.13;9.05;;;;;;;18.23;68.79;100421.94;685974;28;4359;-82
2021/07/24 00:32:17;;;;;;;10.00;8.93;;;;;;;18.21;68.72;100424.66;685763;28;4328;-82
2021/07/24 00:32:37;;;;;;;10.65;9.27;;;;;;;18.23;68.08;100421.94;687089;28;1380;-82
2021/07/24 00:32:57;;;;;;;10.30;9.17;;;;;;;18.22;69.53;100428.19;690567;28;1581;-82
2021/07/24 00:33:18;;;;;;;9.80;8.77;;;;;;;18.18;69.13;100422.16;690437;28;1221;-82
2021/07/24 00:33:38;;;;;;;11.02;9.18;;;;;;;18.20;69.15;100419.44;691638;28;1139;-82
2021/07/24 00:33:58;;;;;;;10.03;8.93;;;;;;;18.17;69.22;100419.56;689635;28;1325;-82
2021/07/24 00:34:19;;;;;;;10.07;9.00;;;;;;;18.17;68.44;100416.91;688310;28;1870;-82
2021/07/24 00:34:39;;;;;;;10.33;9.23;;;;;;;18.20;68.28;100416.78;692310;28;3156;-82
2021/07/24 00:35:01;;;;;;;10.87;9.50;;;;;;;18.20;68.13;100420.28;689303;28;4556;-82
2021/07/24 00:35:21;;;;;;;10.65;9.52;;;;;;;18.21;68.16;100415.88;687618;28;4360;-81
2021/07/24 00:35:41;;;;;;;10.33;9.07;;;;;;;18.20;68.71;100415.00;687167;28;1569;-82
2021/07/24 00:36:02;;;;;;;9.88;8.88;;;;;;;18.22;69.07;100414.97;691157;28;1501;-82
2021/07/24 00:36:22;;;;;;;10.53;9.43;;;;;;;18.33;68.19;100425.09;692811;28;1300;-82
2021/07/24 00:36:44;;;;;;;10.13;9.13;;;;;;;18.32;68.24;100426.88;690205;28;1549;-82
2021/07/24 00:37:04;;;;;;;12.07;8.90;;;;;;;18.32;68.48;100418.94;689469;28;1747;-82
2021/07/24 00:37:25;;;;;;;11.25;9.27;;;;;;;18.29;69.01;100421.72;689465;28;3908;-82
2021/07/24 00:37:45;;;;;;;11.73;9.55;;;;;;;18.29;68.05;100415.53;689513;28;4014;-82
2021/07/24 00:38:09;;;;;;;10.32;9.30;;;;;;;18.27;68.96;100425.34;688122;28;4525;-82
2021/07/24 00:38:29;;;;;;;10.48;9.38;;;;;;;18.28;68.35;100417.34;686642;28;4035;-82
2021/07/24 00:38:50;;;;;;;10.80;9.57;;;;;;;18.27;68.09;100420.91;687288;28;1321;-83
2021/07/24 00:39:10;;;;;;;11.13;9.90;;;;;;;18.26;68.03;100419.19;687578;28;1441;-82
2021/07/24 00:39:30;;;;;;;11.13;9.30;;;;;;;18.26;67.96;100416.53;692487;28;1403;-81
2021/07/24 00:39:51;;;;;;;11.30;9.63;;;;;;;18.28;67.70;100417.34;687700;28;1710;-82
2021/07/24 00:40:15;;;;;;;10.88;9.65;;;;;;;18.30;67.56;100420.78;692360;28;1495;-82
2021/07/24 00:40:40;;;;;;;11.10;9.55;;;;;;;18.33;67.42;100418.03;691247;28;3401;-82
2021/07/24 00:41:07;;;;;;;11.35;9.27;;;;;;;18.33;67.72;100423.31;688544;28;4325;-82
2021/07/24 00:41:47;;;;;;;10.38;9.35;;;;;;;18.30;67.99;100423.41;689091;28;4846;-82
2021/07/24 00:42:21;;;;;;;10.13;9.13;;;;;;;18.32;68.11;100416.28;691308;28;1483;-82
2021/07/24 00:42:46;;;;;;;10.57;9.48;;;;;;;18.32;68.27;100418.94;691204;28;1094;-82
2021/07/24 00:43:09;;;;;;;11.82;9.35;;;;;;;18.32;68.91;100418.94;696839;28;1789;-82
2021/07/24 00:43:31;;;;;;;10.90;9.40;;;;;;;18.29;68.20;100418.19;696836;28;1646;-82
2021/07/24 00:43:53;;;;;;;11.00;9.35;;;;;;;18.28;69.09;100417.34;696334;28;4386;-81
2021/07/24 00:44:16;;;;;;;10.65;9.05;;;;;;;18.30;67.80;100415.47;694951;28;4453;-82
2021/07/24 00:44:38;;;;;;;10.68;9.20;;;;;;;18.27;69.01;100420.91;692978;28;2905;-82
2021/07/24 00:45:02;;;;;;;11.65;9.60;;;;;;;18.34;68.29;100416.22;691249;28;2789;-82
2021/07/24 00:45:25;;;;;;;11.63;9.50;;;;;;;18.34;68.33;100425.00;689611;28;1581;-82
2021/07/24 00:45:48;;;;;;;11.38;9.18;;;;;;;18.34;67.89;100419.72;691522;28;1933;-82
2021/07/24 00:46:09;;;;;;;10.25;9.18;;;;;;;18.32;68.81;100426.03;689279;28;1596;-82
2021/07/24 00:46:31;;;;;;;10.55;9.05;;;;;;;18.30;68.54;100426.06;688753;28;1375;-82
2021/07/24 00:46:56;;;;;;;10.13;9.07;;;;;;;18.39;67.67;100424.84;689594;28;4338;-82
2021/07/24 00:47:20;;;;;;;10.70;9.40;;;;;;;18.35;68.35;100416.16;686011;28;4340;-82
2021/07/24 00:47:46;;;;;;;11.60;9.10;;;;;;;18.32;68.55;100429.53;689042;28;1719;-82
2021/07/24 00:48:20;;;;;;;10.60;9.10;;;;;;;18.33;67.76;100423.31;689333;28;3331;-82
2021/07/24 00:48:57;;;;;;;10.43;9.43;;;;;;;18.20;68.68;100425.56;694977;28;1680;-82
2021/07/24 00:49:33;;;;;;;10.88;9.60;;;;;;;18.19;68.78;100426.53;694615;28;1493;-82
2021/07/24 00:49:57;;;;;;;10.23;9.13;;;;;;;18.17;68.88;100427.50;695321;28;4341;-82
2021/07/24 00:50:18;;;;;;;10.07;9.00;;;;;;;18.17;68.69;100419.56;695676;28;4376;-82
2021/07/24 00:50:39;;;;;;;10.63;9.45;;;;;;;18.21;69.01;100426.47;696875;28;3594;-82
2021/07/24 00:50:59;;;;;;;10.95;9.63;;;;;;;18.20;69.17;100424.72;696221;28;3452;-82
2021/07/24 00:51:27;;;;;;;10.37;9.27;;;;;;;18.17;69.38;100425.72;694482;28;1208;-82
2021/07/24 00:51:53;;;;;;;10.85;9.32;;;;;;;18.19;68.56;100423.00;694218;28;1619;-82
2021/07/24 00:52:15;;;;;;;11.10;9.75;;;;;;;18.20;69.57;100424.72;694514;28;1439;-82
2021/07/24 00:52:39;;;;;;;11.60;9.90;;;;;;;18.23;68.59;100429.88;692087;28;1708;-82
2021/07/24 00:53:09;;;;;;;11.23;9.60;;;;;;;18.25;68.33;100428.06;685919;28;4389;-82
2021/07/24 00:53:37;;;;;;;11.43;9.25;;;;;;;18.24;68.22;100428.13;692416;28;5069;-82
2021/07/24 00:53:58;;;;;;;11.35;8.80;;;;;;;18.25;68.40;100421.88;691836;28;4284;-82
2021/07/24 00:54:20;;;;;;;11.32;9.38;;;;;;;18.21;68.97;100424.66;689717;28;3667;-82
2021/07/24 00:54:42;;;;;;;10.85;9.75;;;;;;;18.20;68.63;100419.44;689344;28;1364;-82
2021/07/24 00:55:04;;;;;;;11.77;9.77;;;;;;;18.19;68.31;100428.28;689462;28;3538;-82
2021/07/24 00:55:25;;;;;;;11.73;9.73;;;;;;;18.19;68.18;100423.88;691738;28;1587;-82
2021/07/24 00:55:50;;;;;;;10.80;9.63;;;;;;;18.20;68.52;100425.56;689829;28;1737;-82
2021/07/24 00:56:10;;;;;;;10.68;9.57;;;;;;;18.19;68.36;100429.16;688977;28;6556;-82
2021/07/24 00:56:31;;;;;;;11.75;9.68;;;;;;;18.22;67.87;100420.25;689100;28;1518;-82
2021/07/24 00:56:52;;;;;;;11.30;9.50;;;;;;;18.19;68.82;100421.22;683952;28;2946;-82
2021/07/24 00:57:13;;;;;;;11.20;9.63;;;;;;;18.20;68.09;100417.63;685401;28;3785;-81
2021/07/24 00:57:35;;;;;;;11.88;9.77;;;;;;;18.14;69.75;100414.41;687695;28;2380;-82
2021/07/24 00:57:56;;;;;;;11.07;9.88;;;;;;;18.12;69.26;100417.09;688725;28;1961;-82
2021/07/24 00:58:35;;;;;;;11.00;9.90;;;;;;;18.14;69.02;100411.75;688532;28;2455;-82
2021/07/24 00:58:56;;;;;;;11.50;9.55;;;;;;;18.16;68.43;100417.84;691634;28;4540;-82
2021/07/24 00:59:17;;;;;;;11.32;9.38;;;;;;;18.16;68.63;100413.41;692976;28;4393;-82
2021/07/24 00:59:37;;;;;;;11.27;9.30;;;;;;;18.15;68.77;100417.00;688453;28;1669;-82
2021/07/24 00:59:58;;;;;;;11.40;9.53;;;;;;;18.16;68.35;100407.25;688326;28;3675;-82
2021/07/24 01:00:19;;;;;;;10.70;9.60;;;;;;;18.18;68.84;100410.72;689259;28;1599;-82
2021/07/24 01:00:39;;;;;;;10.45;9.38;;;;;;;18.17;68.98;100404.53;689685;28;3559;-82
2021/07/24 01:01:03;;;;;;;10.45;9.38;;;;;;;18.16;69.02;100408.09;690477;28;2102;-82
2021/07/24 01:01:25;;;;;;;10.25;9.23;;;;;;;18.18;68.22;100418.66;690000;28;1578;-82
2021/07/24 01:01:46;;;;;;;11.27;9.75;;;;;;;18.19;68.54;100409.78;690829;28;1733;-82
2021/07/24 01:02:07;;;;;;;11.27;10.07;;;;;;;18.17;68.95;100409.00;685783;28;4536;-82
2021/07/24 01:02:28;;;;;;;10.75;9.65;;;;;;;18.16;68.97;100409.91;688599;28;1256;-82
2021/07/24 01:02:48;;;;;;;11.57;9.57;;;;;;;18.15;69.33;100406.41;689706;28;1542;-82
2021/07/24 01:03:08;;;;;;;10.67;9.57;;;;;;;18.15;68.97;100406.41;689585;28;2751;-82
2021/07/24 01:03:29;;;;;;;10.73;9.63;;;;;;;18.15;69.71;100409.06;689516;28;1266;-82
2021/07/24 01:03:50;;;;;;;10.95;9.57;;;;;;;18.16;68.99;100405.47;690450;28;4081;-82
2021/07/24 01:04:11;;;;;;;10.70;9.60;;;;;;;18.14;69.23;100409.97;691962;28;4163;-82
2021/07/24 01:04:33;;;;;;;10.32;9.23;;;;;;;18.18;68.08;100416.84;692093;28;2245;-82
2021/07/24 01:04:54;;;;;;;10.50;9.18;;;;;;;18.20;68.61;100414.16;686490;28;4353;-82
2021/07/24 01:05:15;;;;;;;10.82;9.63;;;;;;;18.23;68.86;100408.72;689302;28;4344;-82
2021/07/24 01:05:35;;;;;;;11.07;9.97;;;;;;;18.18;69.64;100414.22;687072;28;1508;-82
2021/07/24 01:05:57;;;;;;;11.45;10.25;;;;;;;18.21;68.80;100405.28;687374;28;879;-82
2021/07/24 01:06:18;;;;;;;11.35;10.15;;;;;;;18.20;69.30;100403.56;684417;28;1327;-82
2021/07/24 01:06:40;;;;;;;11.93;10.18;;;;;;;18.21;68.67;100406.16;684428;28;1525;-82
2021/07/24 01:07:06;;;;;;;10.65;9.57;;;;;;;18.22;68.60;100409.66;684613;28;4605;-82
2021/07/24 01:07:27;;;;;;;10.68;9.57;;;;;;;18.22;68.27;100401.72;688263;28;3501;-82
2021/07/24 01:07:47;;;;;;;11.00;9.90;;;;;;;18.18;68.63;100400.97;686391;28;4369;-82
2021/07/24 01:08:08;;;;;;;10.47;9.27;;;;;;;18.18;68.69;100400.97;688460;28;4386;-82
2021/07/24 01:08:32;;;;;;;10.45;9.25;;;;;;;18.20;68.01;100406.22;691802;28;1493;-82
2021/07/24 01:08:53;;;;;;;10.45;9.32;;;;;;;18.19;68.80;100401.84;689212;28;1335;-82
2021/07/24 01:09:14;;;;;;;10.52;9.50;;;;;;;18.19;68.03;100402.72;689589;28;1478;-82
2021/07/24 01:09:34;;;;;;;10.10;9.10;;;;;;;18.19;68.25;100397.44;693781;28;3650;-82
2021/07/24 01:09:57;;;;;;;10.77;9.27;;;;;;;18.21;67.85;100392.91;689862;28;1491;-82
2021/07/24 01:10:18;;;;;;;10.60;9.50;;;;;;;18.21;67.99;100390.28;693182;28;1486;-82
2021/07/24 01:10:38;;;;;;;10.90;9.80;;;;;;;18.18;68.88;100400.97;689389;28;2154;-82
2021/07/24 01:10:59;;;;;;;11.07;9.55;;;;;;;18.16;68.73;100401.97;690435;28;4335;-82
2021/07/24 01:11:20;;;;;;;10.87;9.60;;;;;;;18.16;68.87;100401.97;689606;28;4359;-82
2021/07/24 01:11:40;;;;;;;11.30;9.95;;;;;;;18.16;68.30;100402.81;694141;28;1306;-82
2021/07/24 01:12:02;;;;;;;12.13;9.63;;;;;;;18.17;67.99;100398.41;693624;28;1423;-83
2021/07/24 01:12:24;;;;;;;10.82;9.30;;;;;;;18.14;68.85;100393.25;686336;28;1586;-82
2021/07/24 01:12:46;;;;;;;11.05;9.85;;;;;;;18.13;68.67;100396.81;689685;28;1384;-82
2021/07/24 01:13:07;;;;;;;11.63;9.77;;;;;;;18.14;68.45;100393.25;686297;28;1392;-82
2021/07/24 01:13:28;;;;;;;10.97;9.70;;;;;;;18.15;68.51;100402.88;683153;28;4443;-82
2021/07/24 01:13:49;;;;;;;11.80;9.38;;;;;;;18.17;68.21;100401.91;684660;28;4413;-82
2021/07/24 01:14:11;;;;;;;11.07;9.88;;;;;;;18.17;69.40;100395.75;688683;28;4399;-82
2021/07/24 01:14:32;;;;;;;11.07;9.80;;;;;;;18.15;68.69;100398.47;694501;28;1805;-82
2021/07/24 01:14:52;;;;;;;10.43;9.40;;;;;;;18.16;68.48;100391.38;693759;28;1467;-82
2021/07/24 01:15:13;;;;;;;10.73;9.60;;;;;;;18.14;69.44;100409.13;695148;28;1544;-82
2021/07/24 01:15:36;;;;;;;11.27;9.90;;;;;;;18.12;68.55;100406.50;691660;28;1646;-82
2021/07/24 01:15:57;;;;;;;10.77;9.68;;;;;;;18.15;68.29;100400.22;689347;28;1679;-82
2021/07/24 01:16:23;;;;;;;11.00;9.80;;;;;;;18.15;68.69;100398.47;686430;28;1394;-82
2021/07/24 01:16:46;;;;;;;11.60;9.95;;;;;;;18.15;68.41;100402.88;684226;28;1476;-82
2021/07/24 01:17:14;;;;;;;10.80;9.70;;;;;;;18.16;69.06;100399.31;689283;28;5029;-82
2021/07/24 01:17:35;;;;;;;10.77;9.60;;;;;;;18.15;68.89;100400.22;688954;28;1619;-82
2021/07/24 01:17:56;;;;;;;11.23;10.03;;;;;;;18.15;68.10;100401.13;690862;28;1910;-83
2021/07/24 01:18:22;;;;;;;10.75;9.65;;;;;;;18.16;68.10;100394.03;692576;28;1513;-82
2021/07/24 01:18:46;;;;;;;11.43;10.15;;;;;;;18.17;68.65;100393.97;685684;28;1676;-82
2021/07/24 01:19:14;;;;;;;11.15;9.80;;;;;;;18.13;69.05;100402.09;694765;28;1428;-81
2021/07/24 01:19:38;;;;;;;10.82;9.73;;;;;;;18.09;69.02;100393.41;691593;28;1968;-82
2021/07/24 01:20:07;;;;;;;13.38;10.18;;;;;;;18.09;68.69;100398.69;683921;28;4617;-82
2021/07/24 01:20:34;;;;;;;11.40;10.20;;;;;;;18.08;69.03;100401.41;687164;28;4999;-82
2021/07/24 01:21:04;;;;;;;10.98;9.77;;;;;;;18.09;68.66;100396.06;685227;28;1475;-82
2021/07/24 01:21:31;;;;;;;10.65;9.55;;;;;;;18.12;68.62;100400.38;687754;28;1591;-82
2021/07/24 01:21:58;;;;;;;11.23;10.13;;;;;;;18.08;69.10;100394.31;690034;28;1549;-82
2021/07/24 01:22:29;;;;;;;11.20;10.10;;;;;;;18.10;68.17;100397.78;687447;28;1495;-82
2021/07/24 01:22:57;;;;;;;11.02;9.93;;;;;;;18.07;69.47;100389.97;688705;28;5084;-83
2021/07/24 01:23:20;;;;;;;11.00;9.80;;;;;;;18.10;68.58;100397.78;687563;28;4479;-82
2021/07/24 01:23:44;;;;;;;11.10;9.93;;;;;;;18.09;69.36;100396.06;693731;28;1623;-82
2021/07/24 01:24:07;;;;;;;11.50;10.23;;;;;;;18.10;69.75;100391.66;690646;28;1721;-82
2021/07/24 01:24:31;;;;;;;12.35;10.38;;;;;;;18.09;69.21;100396.06;688501;28;1530;-82
2021/07/24 01:24:55;;;;;;;11.30;10.18;;;;;;;18.10;69.60;100391.66;686285;28;1568;-82
2021/07/24 01:25:22;;;;;;;11.77;10.52;;;;;;;18.10;69.18;100396.94;688709;28;1840;-82
2021/07/24 01:25:52;;;;;;;10.75;9.65;;;;;;;18.11;69.33;100394.22;693110;28;2974;-82
2021/07/24 01:26:36;;;;;;;11.02;9.80;;;;;;;18.12;69.23;100401.22;692960;28;5037;-82
2021/07/24 01:27:10;;;;;;;11.88;10.15;;;;;;;18.14;69.25;100398.53;688746;28;1576;-82
2021/07/24 01:27:48;;;;;;;10.88;9.77;;;;;;;18.15;68.16;100394.94;689104;28;1731;-82
2021/07/24 01:28:08;;;;;;;11.30;9.65;;;;;;;18.17;67.96;100403.69;689827;28;1091;-82
2021/07/24 01:28:38;;;;;;;11.38;9.80;;;;;;;18.15;68.66;100406.41;687324;28;2500;-81
2021/07/24 01:29:05;;;;;;;12.35;10.45;;;;;;;18.16;68.50;100401.97;690395;28;4344;-82
2021/07/24 01:29:27;;;;;;;10.52;9.52;;;;;;;18.15;69.88;100402.88;691677;28;4770;-82
2021/07/24 01:29:55;;;;;;;11.10;9.90;;;;;;;18.13;68.38;100407.38;690710;28;1636;-82
2021/07/24 01:30:28;;;;;;;11.15;10.05;;;;;;;18.15;68.01;100408.16;689306;28;3951;-82
2021/07/24 01:30:57;;;;;;;11.25;10.15;;;;;;;18.16;67.77;100407.25;691083;28;1775;-81
2021/07/24 01:31:21;;;;;;;11.77;10.27;;;;;;;18.17;68.26;100398.41;692812;28;1471;-82
2021/07/24 01:31:58;;;;;;;11.80;10.60;;;;;;;18.15;68.55;100402.88;691366;28;1564;-82
2021/07/24 01:32:30;;;;;;;12.00;10.60;;;;;;;18.08;68.43;100404.06;690919;28;5021;-82
2021/07/24 01:32:54;;;;;;;11.68;10.35;;;;;;;18.07;68.13;100407.63;690460;28;2114;-82
2021/07/24 01:33:24;;;;;;;11.63;10.15;;;;;;;18.07;68.80;100402.31;693955;28;3689;-82
2021/07/24 01:33:51;;;;;;;11.02;9.60;;;;;;;18.10;68.20;100404.88;694980;28;1682;-82
2021/07/24 01:34:18;;;;;;;10.95;9.85;;;;;;;18.10;68.34;100405.72;693229;28;1779;-82
2021/07/24 01:34:46;;;;;;;11.82;9.82;;;;;;;18.12;67.85;100408.31;689461;28;1730;-82
2021/07/24 01:35:16;;;;;;;11.25;10.15;;;;;;;18.12;68.39;100406.50;685298;28;5357;-82
2021/07/24 01:35:48;;;;;;;12.10;10.02;;;;;;;18.14;68.34;100404.69;687297;28;3965;-82
2021/07/24 01:36:12;;;;;;;11.15;10.00;;;;;;;18.12;68.42;100410.94;688624;28;4317;-82
2021/07/24 01:36:39;;;;;;;10.85;9.73;;;;;;;18.08;68.52;100404.06;689540;28;1980;-82
2021/07/24 01:36:59;;;;;;;11.30;10.20;;;;;;;18.03;68.53;100404.25;689519;28;1358;-82
2021/07/24 01:37:20;;;;;;;11.23;10.13;;;;;;;18.03;68.79;100406.91;694426;28;2258;-82
2021/07/24 01:37:50;;;;;;;11.20;10.00;;;;;;;18.01;68.66;100404.31;696795;28;1417;-82
2021/07/24 01:38:11;;;;;;;12.65;10.40;;;;;;;18.01;68.63;100409.59;690574;28;4995;-82
2021/07/24 01:38:45;;;;;;;11.32;10.18;;;;;;;18.03;68.68;100407.75;688690;28;1474;-82
2021/07/24 01:39:15;;;;;;;11.30;10.00;;;;;;;18.07;67.96;100400.56;690895;28;1584;-82
2021/07/24 01:39:37;;;;;;;11.18;10.07;;;;;;;18.09;67.82;100409.28;688632;28;3558;-82
2021/07/24 01:39:59;;;;;;;11.20;10.03;;;;;;;18.12;67.86;100400.38;688001;28;1482;-82
2021/07/24 01:40:22;;;;;;;11.40;10.20;;;;;;;18.15;67.77;100397.59;686870;28;1973;-83
2021/07/24 01:40:46;;;;;;;11.82;10.63;;;;;;;18.14;68.17;100403.81;689560;28;2457;-82
2021/07/24 01:41:16;;;;;;;11.55;10.30;;;;;;;18.10;69.61;100397.78;688735;28;7777;-82
2021/07/24 01:41:47;;;;;;;12.48;10.95;;;;;;;18.07;69.24;100407.63;687317;28;1620;-83
2021/07/24 01:42:14;;;;;;;11.82;10.60;;;;;;;18.14;68.28;100403.81;689051;28;4078;-82
2021/07/24 01:42:45;;;;;;;13.90;10.18;;;;;;;18.15;67.86;100406.41;691517;28;3773;-82
2021/07/24 01:43:15;;;;;;;15.25;10.85;;;;;;;18.14;70.37;100403.81;693573;28;1390;-82
2021/07/24 01:43:38;;;;;;;11.85;10.50;;;;;;;18.15;68.19;100405.53;695475;28;1292;-82
2021/07/24 01:43:59;;;;;;;12.27;10.10;;;;;;;18.17;68.01;100414.28;693219;28;4423;-82
2021/07/24 01:44:23;;;;;;;10.80;9.70;;;;;;;18.17;68.23;100404.53;685474;28;4313;-82
2021/07/24 01:44:46;;;;;;;11.38;10.18;;;;;;;18.18;67.82;100410.72;691893;28;1854;-82
2021/07/24 01:45:13;;;;;;;11.40;10.05;;;;;;;18.19;67.92;100412.41;689215;28;1752;-82
2021/07/24 01:45:44;;;;;;;11.77;9.68;;;;;;;18.18;68.72;100411.56;690418;28;1739;-82
2021/07/24 01:46:09;;;;;;;11.38;10.18;;;;;;;18.15;68.16;100419.63;692496;28;2137;-82
2021/07/24 01:46:50;;;;;;;11.15;10.05;;;;;;;18.18;67.90;100418.66;693208;28;4345;-82
2021/07/24 01:47:19;;;;;;;12.23;10.50;;;;;;;18.18;67.64;100419.50;692360;28;4344;-82
2021/07/24 01:47:46;;;;;;;11.50;10.30;;;;;;;18.20;67.70;100424.72;695301;28;1429;-82
2021/07/24 01:48:30;;;;;;;11.20;10.10;;;;;;;18.20;67.61;100422.94;689767;28;1414;-82
2021/07/24 01:52:49;;;;;;;11.43;10.18;;;;;;;18.13;70.28;100433.84;697492;28;1751;-82
2021/07/24 01:53:18;;;;;;;11.70;10.32;;;;;;;18.09;69.15;100432.25;693290;28;6209;-82
2021/07/24 01:53:47;;;;;;;11.20;10.10;;;;;;;18.02;69.78;100435.09;697539;28;1529;-82